Kirkstone Pass, United Kingdom
Current Conditions -  °F | °C
As of 2:50 AM on Saturday 25 Oct 2014 (Local Time) from EGOM Reporting Station
Rain Showers Rain Showers  
Wind Chill: 41°   Ceiling: 1300
Heat Index: 46°   Visibility: 5mi
Dew Point: 45°   Wind: 13mph
Humidity: 93%   Direction: 230°SW
Pressure: 29.77"   Gusts: NA
Location:  54.47°N, 2.92°W
Report Text: EGOM 250150Z AUTO 23011KT 8000 SHRA FEW007/// BKN013/// 08/07 Q1008
Loading
Personal Weather Stations






























Interactive Weather Map
Tropical Storm Tracking
New forecast layout! Learn more

10-Day Weather Forecast

Advertisements
Track Severe Weather on mobile